createdAt,value
2022-08-03T00:00:42.208Z,18.90
2022-08-03T00:03:11.333Z,18.90
2022-08-03T00:05:40.454Z,18.80
2022-08-03T00:08:29.461Z,18.78
2022-08-03T00:10:58.765Z,18.70
2022-08-03T00:13:28.270Z,18.60
2022-08-03T00:15:57.055Z,18.52
2022-08-03T00:18:26.130Z,18.50
2022-08-03T00:20:54.941Z,18.44
2022-08-03T00:23:23.833Z,18.40
2022-08-03T00:25:52.928Z,18.40
2022-08-03T00:28:21.718Z,18.30
2022-08-03T00:30:50.712Z,18.30
2022-08-03T00:33:19.809Z,18.30
2022-08-03T00:35:51.268Z,18.26
2022-08-03T00:38:21.176Z,18.20
2022-08-03T00:40:50.067Z,18.20
2022-08-03T00:43:19.163Z,18.10
2022-08-03T00:45:48.650Z,18.10
2022-08-03T00:48:33.104Z,18.10
2022-08-03T00:51:03.044Z,18.10
2022-08-03T00:53:32.650Z,18.10
2022-08-03T00:56:01.546Z,18.10
2022-08-03T00:58:30.433Z,18.00
2022-08-03T01:00:59.571Z,18.00
2022-08-03T01:03:28.728Z,18.00
2022-08-03T01:06:40.218Z,18.00
2022-08-03T01:09:29.389Z,18.00
2022-08-03T01:12:33.606Z,18.00
2022-08-03T01:15:43.663Z,18.00
2022-08-03T01:18:25.050Z,18.00
2022-08-03T01:20:58.153Z,18.00
2022-08-03T01:24:00.311Z,18.00
2022-08-03T01:26:56.748Z,17.80
2022-08-03T01:30:05.590Z,17.80
2022-08-03T01:33:00.917Z,17.70
2022-08-03T01:35:49.132Z,17.66
2022-08-03T01:38:30.003Z,17.60
2022-08-03T01:41:05.181Z,17.60
2022-08-03T01:44:27.324Z,17.60
2022-08-03T01:46:26.196Z,17.60
2022-08-03T01:48:56.737Z,17.60
2022-08-03T01:51:56.563Z,17.60
2022-08-03T01:54:16.059Z,17.60
2022-08-03T01:56:46.896Z,17.50
2022-08-03T01:59:19.444Z,17.48
2022-08-03T02:02:15.567Z,17.40
2022-08-03T02:04:39.413Z,17.30
2022-08-03T02:07:09.797Z,17.30
2022-08-03T02:09:41.325Z,17.30
2022-08-03T02:12:12.247Z,17.30
2022-08-03T02:14:44.625Z,17.22
2022-08-03T02:17:15.212Z,17.20
2022-08-03T02:19:45.352Z,17.10
2022-08-03T02:22:15.609Z,17.10
2022-08-03T02:24:51.058Z,17.10
2022-08-03T02:27:27.438Z,17.10
2022-08-03T02:30:12.498Z,17.10
2022-08-03T02:32:49.069Z,17.10
2022-08-03T02:35:21.610Z,17.10
2022-08-03T02:38:00.434Z,17.20
2022-08-03T02:40:32.142Z,17.20
2022-08-03T02:43:07.986Z,17.20
2022-08-03T02:45:45.658Z,17.20
2022-08-03T02:48:22.995Z,17.20
2022-08-03T02:50:55.237Z,17.10
2022-08-03T02:53:25.219Z,17.00
2022-08-03T02:55:57.141Z,16.90
2022-08-03T02:58:26.893Z,16.90
2022-08-03T03:00:57.272Z,16.80
2022-08-03T03:03:28.240Z,16.76
2022-08-03T03:06:01.555Z,16.72
2022-08-03T03:08:35.242Z,16.70
2022-08-03T03:11:05.951Z,16.70
2022-08-03T03:13:34.989Z,16.80
2022-08-03T03:16:08.569Z,16.74
2022-08-03T03:18:38.634Z,16.70
2022-08-03T03:21:10.617Z,16.60
2022-08-03T03:23:42.071Z,16.60
2022-08-03T03:26:13.512Z,16.50
2022-08-03T03:28:42.980Z,16.50
2022-08-03T03:31:12.385Z,16.40
2022-08-03T03:33:41.583Z,16.40
2022-08-03T03:36:10.884Z,16.40
2022-08-03T03:38:39.982Z,16.50
2022-08-03T03:41:10.101Z,16.50
2022-08-03T03:43:39.096Z,16.60
2022-08-03T03:46:08.499Z,16.70
2022-08-03T03:48:37.289Z,16.72
2022-08-03T03:51:07.496Z,16.80
2022-08-03T03:53:36.404Z,16.80
2022-08-03T03:56:05.601Z,16.80
2022-08-03T03:58:34.492Z,16.80
2022-08-03T04:01:03.613Z,16.90
2022-08-03T04:03:32.583Z,17.00
2022-08-03T04:06:20.214Z,17.00
2022-08-03T04:09:07.844Z,17.00
2022-08-03T04:11:58.958Z,17.00
2022-08-03T04:14:34.248Z,16.90
2022-08-03T04:17:07.596Z,16.90
2022-08-03T04:19:45.603Z,17.00
2022-08-03T04:22:19.905Z,17.10
2022-08-03T04:25:01.101Z,17.12
2022-08-03T04:27:37.468Z,17.20
2022-08-03T04:30:07.916Z,17.30
2022-08-03T04:32:39.302Z,17.30
2022-08-03T04:35:10.681Z,17.30
2022-08-03T04:37:52.386Z,17.30
2022-08-03T04:40:41.130Z,17.60
2022-08-03T04:43:14.042Z,18.00
2022-08-03T04:45:45.055Z,18.40
2022-08-03T04:48:15.739Z,18.80
2022-08-03T04:50:45.212Z,19.20
2022-08-03T04:53:14.206Z,19.58
2022-08-03T04:55:43.203Z,19.90
2022-08-03T04:58:13.010Z,20.20
2022-08-03T05:00:42.824Z,20.30
2022-08-03T05:03:23.505Z,20.64
2022-08-03T05:06:01.738Z,21.10
2022-08-03T05:08:46.063Z,21.58
2022-08-03T05:11:17.618Z,22.08
2022-08-03T05:13:46.821Z,22.50
2022-08-03T05:16:16.010Z,22.88
2022-08-03T05:18:46.390Z,23.30
2022-08-03T05:21:16.660Z,23.10
2022-08-03T05:23:45.673Z,22.80
2022-08-03T05:26:14.548Z,22.50
2022-08-03T05:28:51.038Z,22.40
2022-08-03T05:31:20.560Z,22.30
2022-08-03T05:33:49.821Z,22.50
2022-08-03T05:36:18.612Z,22.40
2022-08-03T05:38:47.399Z,22.32
2022-08-03T05:41:22.765Z,22.30
2022-08-03T05:43:55.525Z,22.20
2022-08-03T05:46:24.709Z,22.20
2022-08-03T05:48:53.670Z,22.14
2022-08-03T05:51:22.819Z,22.10
2022-08-03T05:53:51.706Z,22.10
2022-08-03T05:56:27.152Z,22.22
2022-08-03T05:58:56.146Z,22.50
2022-08-03T06:01:25.470Z,22.80
2022-08-03T06:03:54.338Z,23.40
2022-08-03T06:06:23.129Z,23.96
2022-08-03T06:08:52.226Z,24.00
2022-08-03T06:11:21.116Z,24.10
2022-08-03T06:13:50.007Z,24.00
2022-08-03T06:16:18.798Z,24.06
2022-08-03T06:18:48.199Z,24.10
2022-08-03T06:21:16.993Z,24.28
2022-08-03T06:23:54.193Z,24.40
2022-08-03T06:26:28.699Z,24.50
2022-08-03T06:28:57.696Z,24.96
2022-08-03T06:31:33.359Z,25.08
2022-08-03T06:34:31.011Z,25.96
2022-08-03T06:37:01.329Z,27.56
2022-08-03T06:39:31.147Z,28.76
2022-08-03T06:42:00.156Z,28.94
2022-08-03T06:44:29.033Z,29.50
2022-08-03T06:46:59.052Z,29.02
2022-08-03T06:49:28.303Z,29.30
2022-08-03T06:52:05.403Z,29.86
2022-08-03T06:54:36.803Z,30.66
2022-08-03T06:57:06.750Z,31.56
2022-08-03T07:00:08.177Z,32.44
2022-08-03T07:02:24.967Z,33.24
2022-08-03T07:04:57.536Z,33.90
2022-08-03T07:07:26.437Z,34.48
2022-08-03T07:09:57.852Z,34.88
2022-08-03T07:12:29.713Z,35.46
2022-08-03T07:15:02.694Z,35.86
2022-08-03T07:17:35.414Z,36.22
2022-08-03T07:20:08.052Z,36.70
2022-08-03T07:22:37.299Z,37.02
2022-08-03T07:25:07.031Z,37.48
2022-08-03T07:27:36.000Z,37.82
2022-08-03T07:30:08.517Z,38.18
2022-08-03T07:32:37.674Z,38.10
2022-08-03T07:35:24.294Z,38.10
2022-08-03T07:37:55.230Z,38.30
2022-08-03T07:40:25.109Z,38.36
2022-08-03T07:43:00.602Z,38.60
2022-08-03T07:45:31.533Z,38.50
2022-08-03T07:48:00.822Z,38.40
2022-08-03T07:50:29.724Z,38.60
2022-08-03T07:53:00.244Z,38.58
2022-08-03T07:55:30.627Z,38.52
2022-08-03T07:58:10.136Z,38.50
2022-08-03T08:00:39.242Z,38.94
2022-08-03T08:03:08.699Z,38.90
2022-08-03T08:05:38.116Z,38.90
2022-08-03T08:08:07.930Z,39.20
2022-08-03T08:10:37.333Z,39.58
2022-08-03T08:13:06.226Z,39.70
2022-08-03T08:15:35.118Z,39.90
2022-08-03T08:18:04.531Z,40.24
2022-08-03T08:20:38.214Z,40.58
2022-08-03T08:23:13.906Z,40.40
2022-08-03T08:25:58.331Z,40.30
2022-08-03T08:28:32.819Z,40.50
2022-08-03T08:31:03.282Z,40.40
2022-08-03T08:33:54.261Z,40.40
2022-08-03T08:36:21.989Z,40.60
2022-08-03T08:38:50.862Z,40.80
2022-08-03T08:41:19.799Z,40.90
2022-08-03T08:43:48.746Z,40.90
2022-08-03T08:46:23.953Z,41.10
2022-08-03T08:48:55.681Z,41.40
2022-08-03T08:51:54.866Z,41.20
2022-08-03T08:54:22.847Z,40.90
2022-08-03T08:56:53.846Z,40.80
2022-08-03T08:59:23.554Z,40.30
2022-08-03T09:01:57.055Z,40.20
2022-08-03T09:04:27.076Z,40.60
2022-08-03T09:07:18.829Z,40.70
2022-08-03T09:10:12.343Z,40.60
2022-08-03T09:12:44.719Z,40.60
2022-08-03T09:15:30.333Z,40.30
2022-08-03T09:18:02.861Z,39.94
2022-08-03T09:20:34.894Z,39.80
2022-08-03T09:23:44.497Z,39.90
2022-08-03T09:26:01.969Z,39.70
2022-08-03T09:29:00.595Z,39.60
2022-08-03T09:32:02.906Z,39.32
2022-08-03T09:34:33.433Z,38.80
2022-08-03T09:37:02.400Z,38.46
2022-08-03T09:39:41.078Z,37.80
2022-08-03T09:42:23.923Z,37.58
2022-08-03T09:44:53.579Z,37.22
2022-08-03T09:47:36.953Z,36.74
2022-08-03T09:50:13.728Z,36.40
2022-08-03T09:52:52.444Z,36.30
2022-08-03T09:56:34.257Z,36.20
2022-08-03T09:58:14.661Z,36.24
2022-08-03T10:01:05.792Z,36.34
2022-08-03T10:04:03.123Z,36.32
2022-08-03T10:06:29.899Z,36.40
2022-08-03T10:09:10.734Z,36.30
2022-08-03T10:11:42.426Z,36.20
2022-08-03T10:14:23.893Z,36.16
2022-08-03T10:16:52.683Z,36.00
2022-08-03T10:19:21.573Z,35.74
2022-08-03T10:21:56.030Z,35.54
2022-08-03T10:24:28.480Z,35.40
2022-08-03T10:27:08.829Z,35.14
2022-08-03T10:29:47.794Z,35.00
2022-08-03T10:32:32.113Z,35.12
2022-08-03T10:35:21.565Z,35.24
2022-08-03T10:38:02.559Z,34.84
2022-08-03T10:40:51.089Z,34.86
2022-08-03T10:43:26.346Z,35.00
2022-08-03T10:45:56.881Z,35.04
2022-08-03T10:48:26.704Z,35.20
2022-08-03T10:50:55.894Z,35.40
2022-08-03T10:53:40.753Z,35.52
2022-08-03T10:56:51.845Z,35.50
2022-08-03T10:59:47.266Z,35.40
2022-08-03T11:02:16.657Z,35.20
2022-08-03T11:04:48.123Z,35.20
2022-08-03T11:07:17.940Z,35.30
2022-08-03T11:09:53.369Z,35.30
2022-08-03T11:12:33.736Z,35.20
2022-08-03T11:15:08.986Z,35.18
2022-08-03T11:17:45.751Z,35.20
2022-08-03T11:20:56.417Z,35.20
2022-08-03T11:24:04.020Z,35.22
2022-08-03T11:26:35.365Z,35.30
2022-08-03T11:29:31.597Z,35.36
2022-08-03T11:32:00.388Z,35.40
2022-08-03T11:34:29.176Z,35.30
2022-08-03T11:37:31.374Z,35.40
2022-08-03T11:40:02.948Z,35.30
2022-08-03T11:42:35.686Z,35.24
2022-08-03T11:45:08.267Z,35.14
2022-08-03T11:47:50.987Z,35.20
2022-08-03T11:50:21.675Z,35.30
2022-08-03T11:52:51.413Z,35.40
2022-08-03T11:55:22.419Z,35.30
2022-08-03T11:59:19.012Z,35.20
2022-08-03T12:00:40.665Z,35.20
2022-08-03T12:03:13.980Z,35.04
2022-08-03T12:05:53.055Z,35.00
2022-08-03T12:08:28.201Z,35.10
2022-08-03T12:11:00.128Z,35.10
2022-08-03T12:14:44.308Z,35.08
2022-08-03T12:16:38.579Z,35.00
2022-08-03T12:19:08.613Z,35.08
2022-08-03T12:21:56.819Z,35.30
2022-08-03T12:24:29.025Z,35.20
2022-08-03T12:27:00.085Z,35.00
2022-08-03T12:29:29.577Z,35.10
2022-08-03T12:31:58.374Z,35.20
2022-08-03T12:34:47.808Z,35.20
2022-08-03T12:37:25.945Z,35.06
2022-08-03T12:40:09.632Z,34.90
2022-08-03T12:42:41.007Z,34.80
2022-08-03T12:45:32.966Z,34.70
2022-08-03T12:48:02.985Z,34.70
2022-08-03T12:50:34.690Z,34.76
2022-08-03T12:53:08.928Z,34.80
2022-08-03T12:55:57.651Z,34.84
2022-08-03T12:58:37.149Z,35.16
2022-08-03T13:01:09.472Z,35.30
2022-08-03T13:03:52.739Z,35.30
2022-08-03T13:06:25.739Z,35.50
2022-08-03T13:09:07.519Z,35.60
2022-08-03T13:11:55.693Z,35.50
2022-08-03T13:14:25.188Z,35.50
2022-08-03T13:16:54.180Z,35.40
2022-08-03T13:19:22.970Z,35.50
2022-08-03T13:21:53.848Z,35.50
2022-08-03T13:24:34.102Z,35.50
2022-08-03T13:28:04.928Z,35.38
2022-08-03T13:29:55.408Z,35.00
2022-08-03T13:32:24.761Z,34.90
2022-08-03T13:34:53.696Z,34.90
2022-08-03T13:37:23.093Z,34.94
2022-08-03T13:39:59.868Z,34.90
2022-08-03T13:42:32.594Z,34.70
2022-08-03T13:45:03.064Z,34.80
2022-08-03T13:47:32.389Z,35.06
2022-08-03T13:50:03.063Z,34.90
2022-08-03T13:52:35.640Z,34.90
2022-08-03T13:55:07.511Z,35.00
2022-08-03T13:58:04.794Z,35.00
2022-08-03T14:00:29.228Z,35.00
2022-08-03T14:03:16.583Z,35.02
2022-08-03T14:05:45.937Z,35.00
2022-08-03T14:08:15.550Z,34.80
2022-08-03T14:10:45.813Z,34.70
2022-08-03T14:13:17.800Z,34.50
2022-08-03T14:15:49.749Z,34.50
2022-08-03T14:18:28.608Z,34.48
2022-08-03T14:21:06.459Z,34.30
2022-08-03T14:23:38.202Z,34.30
2022-08-03T14:26:08.924Z,34.44
2022-08-03T14:28:38.112Z,34.60
2022-08-03T14:31:08.405Z,34.58
2022-08-03T14:33:56.579Z,34.22
2022-08-03T14:36:25.888Z,34.02
2022-08-03T14:38:57.094Z,34.00
2022-08-03T14:41:30.018Z,34.00
2022-08-03T14:44:01.871Z,34.10
2022-08-03T14:46:32.666Z,34.20
2022-08-03T14:50:34.333Z,34.10
2022-08-03T14:51:53.519Z,34.12
2022-08-03T14:54:23.861Z,34.10
2022-08-03T14:56:53.268Z,34.10
2022-08-03T14:59:22.264Z,34.00
2022-08-03T15:02:06.261Z,33.80
2022-08-03T15:04:37.964Z,33.80
2022-08-03T15:07:07.063Z,33.80
2022-08-03T15:09:36.158Z,33.80
2022-08-03T15:12:06.935Z,33.72
2022-08-03T15:14:35.987Z,33.50
2022-08-03T15:17:07.800Z,33.46
2022-08-03T15:20:03.978Z,33.30
2022-08-03T15:22:34.382Z,33.22
2022-08-03T15:26:27.917Z,33.14
2022-08-03T15:28:03.983Z,33.10
2022-08-03T15:30:36.498Z,33.14
2022-08-03T15:33:07.001Z,33.20
2022-08-03T15:35:36.545Z,33.30
2022-08-03T15:38:09.291Z,33.30
2022-08-03T15:40:38.738Z,33.20
2022-08-03T15:43:07.830Z,33.12
2022-08-03T15:45:37.386Z,33.20
2022-08-03T15:48:06.709Z,33.30
2022-08-03T15:50:35.631Z,33.36
2022-08-03T15:53:05.268Z,33.40
2022-08-03T15:55:34.232Z,33.50
2022-08-03T15:59:10.143Z,33.58
2022-08-03T16:00:51.990Z,33.60
2022-08-03T16:03:20.775Z,33.50
2022-08-03T16:05:49.767Z,33.50
2022-08-03T16:08:18.562Z,33.40
2022-08-03T16:10:48.587Z,33.34
2022-08-03T16:13:19.309Z,33.30
2022-08-03T16:15:49.005Z,33.30
2022-08-03T16:18:18.116Z,33.30
2022-08-03T16:20:47.417Z,33.30
2022-08-03T16:23:19.031Z,33.30
2022-08-03T16:25:49.475Z,33.30
2022-08-03T16:28:19.161Z,33.20
2022-08-03T16:30:48.311Z,33.20
2022-08-03T16:33:17.945Z,33.20
2022-08-03T16:35:50.085Z,33.20
2022-08-03T16:38:19.610Z,33.20
2022-08-03T16:40:52.325Z,33.10
2022-08-03T16:43:23.202Z,33.10
2022-08-03T16:45:53.110Z,33.10
2022-08-03T16:48:22.019Z,33.10
2022-08-03T16:50:51.012Z,33.10
2022-08-03T16:53:33.608Z,33.00
2022-08-03T16:56:11.035Z,32.90
2022-08-03T16:58:41.674Z,32.90
2022-08-03T17:01:24.182Z,32.80
2022-08-03T17:04:04.692Z,32.70
2022-08-03T17:06:44.765Z,32.60
2022-08-03T17:09:21.351Z,32.54
2022-08-03T17:11:52.039Z,32.50
2022-08-03T17:14:28.216Z,32.50
2022-08-03T17:17:04.046Z,32.50
2022-08-03T17:19:35.403Z,32.50
2022-08-03T17:22:15.974Z,32.40
2022-08-03T17:24:52.972Z,32.30
2022-08-03T17:28:49.759Z,32.20
2022-08-03T17:30:19.213Z,32.10
2022-08-03T17:32:52.407Z,32.00
2022-08-03T17:35:34.343Z,31.90
2022-08-03T17:38:10.523Z,31.90
2022-08-03T17:40:49.925Z,31.80
2022-08-03T17:44:13.510Z,31.70
2022-08-03T17:46:10.791Z,31.54
2022-08-03T17:48:41.940Z,31.38
2022-08-03T17:51:46.395Z,31.10
2022-08-03T17:54:27.118Z,30.96
2022-08-03T17:57:22.072Z,30.90
2022-08-03T18:00:28.790Z,30.80
2022-08-03T18:03:18.673Z,30.70
2022-08-03T18:06:11.106Z,30.60
2022-08-03T18:08:55.261Z,30.50
2022-08-03T18:11:35.579Z,30.40
2022-08-03T18:14:16.131Z,30.20
2022-08-03T18:16:52.864Z,30.10
2022-08-03T18:20:01.000Z,30.00
2022-08-03T18:22:13.720Z,29.80
2022-08-03T18:24:44.678Z,29.70
2022-08-03T18:27:16.230Z,29.60
2022-08-03T18:29:50.081Z,29.50
2022-08-03T18:32:21.129Z,29.50
2022-08-03T18:34:58.563Z,29.34
2022-08-03T18:37:28.641Z,29.20
2022-08-03T18:39:58.735Z,29.08
2022-08-03T18:42:28.984Z,29.00
2022-08-03T18:45:55.026Z,28.90
2022-08-03T18:48:09.229Z,28.90
2022-08-03T18:50:39.077Z,28.80
2022-08-03T18:54:01.877Z,28.70
2022-08-03T18:56:54.482Z,28.70
2022-08-03T18:59:31.233Z,28.60
2022-08-03T19:02:09.237Z,28.50
2022-08-03T19:04:48.151Z,28.50
2022-08-03T19:07:27.081Z,28.40
2022-08-03T19:10:11.386Z,28.30
2022-08-03T19:12:57.873Z,28.20
2022-08-03T19:15:36.587Z,28.10
2022-08-03T19:18:10.759Z,28.02
2022-08-03T19:20:41.665Z,28.00
2022-08-03T19:23:17.588Z,27.90
2022-08-03T19:25:47.112Z,27.80
2022-08-03T19:28:17.593Z,27.60
2022-08-03T19:30:53.611Z,27.50
2022-08-03T19:33:29.854Z,27.40
2022-08-03T19:35:59.266Z,27.32
2022-08-03T19:38:29.873Z,27.20
2022-08-03T19:41:04.041Z,27.10
2022-08-03T19:43:57.629Z,27.00
2022-08-03T19:46:31.600Z,26.90
2022-08-03T19:49:15.243Z,26.80
2022-08-03T19:52:02.618Z,26.70
2022-08-03T19:54:45.792Z,26.60
2022-08-03T19:57:27.453Z,26.50
2022-08-03T19:59:57.965Z,26.46
2022-08-03T20:02:29.637Z,26.38
2022-08-03T20:05:00.409Z,26.30
2022-08-03T20:07:34.428Z,26.20
2022-08-03T20:10:06.563Z,26.20
2022-08-03T20:12:39.318Z,26.10
2022-08-03T20:15:10.895Z,26.10
2022-08-03T20:17:56.418Z,26.00
2022-08-03T20:20:33.857Z,25.90
2022-08-03T20:23:11.792Z,25.76
2022-08-03T20:25:58.422Z,25.60
2022-08-03T20:28:50.115Z,25.52
2022-08-03T20:31:23.952Z,25.42
2022-08-03T20:34:01.530Z,25.40
2022-08-03T20:36:30.403Z,25.30
2022-08-03T20:38:59.813Z,25.30
2022-08-03T20:41:30.723Z,25.20
2022-08-03T20:44:02.164Z,25.20
2022-08-03T20:46:41.673Z,25.16
2022-08-03T20:49:23.163Z,25.10
2022-08-03T20:51:53.742Z,25.02
2022-08-03T20:54:30.737Z,24.96
2022-08-03T20:57:04.455Z,24.80
2022-08-03T20:59:51.244Z,24.70
2022-08-03T21:02:30.095Z,24.70
2022-08-03T21:05:03.767Z,24.60
2022-08-03T21:08:03.991Z,24.60
2022-08-03T21:10:33.482Z,24.54
2022-08-03T21:13:24.034Z,24.50
2022-08-03T21:16:07.073Z,24.50
2022-08-03T21:18:54.140Z,24.40
2022-08-03T21:21:24.272Z,24.30
2022-08-03T21:23:55.599Z,24.30
2022-08-03T21:26:27.757Z,24.20
2022-08-03T21:28:57.525Z,24.08
2022-08-03T21:31:27.394Z,24.00
2022-08-03T21:34:03.981Z,24.00
2022-08-03T21:36:36.423Z,23.98
2022-08-03T21:39:08.796Z,23.90
2022-08-03T21:41:40.269Z,23.80
2022-08-03T21:44:09.406Z,23.70
2022-08-03T21:46:41.575Z,23.60
2022-08-03T21:50:07.622Z,23.60
2022-08-03T21:52:07.091Z,23.50
2022-08-03T21:54:41.188Z,23.50
2022-08-03T21:57:25.884Z,23.50
2022-08-03T22:00:02.148Z,23.40
2022-08-03T22:02:32.378Z,23.40
2022-08-03T22:05:05.001Z,23.30
2022-08-03T22:07:35.257Z,23.28
2022-08-03T22:10:07.757Z,23.20
2022-08-03T22:12:37.002Z,23.20
2022-08-03T22:15:10.711Z,23.10
2022-08-03T22:17:55.786Z,23.00
2022-08-03T22:20:26.569Z,23.00
2022-08-03T22:23:02.345Z,23.00
2022-08-03T22:25:36.217Z,22.90
2022-08-03T22:28:12.795Z,22.90
2022-08-03T22:30:43.036Z,22.90
2022-08-03T22:33:13.223Z,22.90
2022-08-03T22:35:50.690Z,22.90
2022-08-03T22:38:19.729Z,22.82
2022-08-03T22:40:51.313Z,22.80
2022-08-03T22:43:28.053Z,22.80
2022-08-03T22:46:09.742Z,22.80
2022-08-03T22:48:41.826Z,22.74
2022-08-03T22:51:11.233Z,22.70
2022-08-03T22:53:41.130Z,22.70
2022-08-03T22:56:10.746Z,22.70
2022-08-03T22:58:39.636Z,22.66
2022-08-03T23:01:12.111Z,22.60
2022-08-03T23:04:00.151Z,22.60
2022-08-03T23:06:39.010Z,22.60
2022-08-03T23:09:14.471Z,22.56
2022-08-03T23:11:45.996Z,22.50
2022-08-03T23:14:18.969Z,22.50
2022-08-03T23:16:48.398Z,22.50
2022-08-03T23:19:25.309Z,22.50
2022-08-03T23:22:03.553Z,22.40
2022-08-03T23:24:38.348Z,22.40
2022-08-03T23:27:09.689Z,22.30
2022-08-03T23:29:42.832Z,22.30
2022-08-03T23:32:14.631Z,22.20
2022-08-03T23:35:03.165Z,22.20
2022-08-03T23:37:33.729Z,22.10
2022-08-03T23:40:29.233Z,22.08
2022-08-03T23:42:58.795Z,22.00
2022-08-03T23:45:28.493Z,22.00
2022-08-03T23:47:57.310Z,21.92
2022-08-03T23:50:33.914Z,21.90
2022-08-03T23:53:39.035Z,21.90
2022-08-03T23:56:21.520Z,21.90
2022-08-03T23:59:10.381Z,21.88
